Time;durP1;ratioP1;P1;durP2;ratioP2;P2;SDS_P1;SDS_P2;PMS_P1;PMS_P2;Temp;Humidity;BMP_temperature;BMP_pressure;BME280_temperature;BME280_humidity;BME280_pressure;Samples;Min_cycle;Max_cycle;Signal;HPM_P1;HPM_P2
2024/02/21 00:01:19;;;;;;;1.23;1.15;;;;;;;;;;5931699;28;20123;-84
2024/02/21 00:04:11;;;;;;;4.53;2.40;;;;;;;;;;5931828;28;20056;-84
2024/02/21 00:07:02;;;;;;;3.45;2.17;;;;;;;;;;5932144;28;20059;-84
2024/02/21 00:09:53;;;;;;;3.20;2.13;;;;;;;;;;5932461;28;20033;-85
2024/02/21 00:12:44;;;;;;;1.33;1.23;;;;;;;;;;5915161;28;20048;-84
2024/02/21 00:15:34;;;;;;;1.35;1.20;;;;;;;;;;5916536;28;20075;-85
2024/02/21 00:18:25;;;;;;;4.60;3.03;;;;;;;;;;5931571;28;21165;-85
2024/02/21 00:21:20;;;;;;;5.47;1.45;;;;;;;;;;5931367;28;20060;-85
2024/02/21 00:24:10;;;;;;;1.70;1.17;;;;;;;;;;5914816;28;20040;-85
2024/02/21 00:27:01;;;;;;;2.30;1.60;;;;;;;;;;5931767;28;20056;-84
2024/02/21 00:29:52;;;;;;;1.23;1.13;;;;;;;;;;5916982;28;20048;-84
2024/02/21 00:32:43;;;;;;;2.67;1.48;;;;;;;;;;5914584;28;20044;-84
2024/02/21 00:35:33;;;;;;;1.38;1.27;;;;;;;;;;5931854;28;20071;-85
2024/02/21 00:38:24;;;;;;;4.25;1.92;;;;;;;;;;5915639;28;20071;-85
2024/02/21 00:41:15;;;;;;;7.32;2.67;;;;;;;;;;5931693;28;20410;-86
2024/02/21 00:44:07;;;;;;;2.72;2.42;;;;;;;;;;5931963;28;20375;-85
2024/02/21 00:46:58;;;;;;;4.22;1.80;;;;;;;;;;5931784;28;20061;-85
2024/02/21 00:49:49;;;;;;;2.95;1.98;;;;;;;;;;5916166;28;20041;-85
2024/02/21 00:52:40;;;;;;;4.70;2.15;;;;;;;;;;5931375;28;20036;-86
2024/02/21 00:55:31;;;;;;;5.20;1.45;;;;;;;;;;5931446;28;20055;-85
2024/02/21 00:58:21;;;;;;;3.13;1.58;;;;;;;;;;5915851;28;20072;-86
2024/02/21 01:01:13;;;;;;;1.73;1.63;;;;;;;;;;5914085;28;20049;-85
2024/02/21 01:04:04;;;;;;;4.60;2.90;;;;;;;;;;5916399;28;20063;-85
2024/02/21 01:06:55;;;;;;;4.13;3.67;;;;;;;;;;5887745;28;20041;-85
2024/02/21 01:09:46;;;;;;;3.13;1.80;;;;;;;;;;5904053;28;20041;-86
2024/02/21 01:12:36;;;;;;;2.90;1.88;;;;;;;;;;5887871;28;20044;-86
2024/02/21 01:15:27;;;;;;;2.35;1.33;;;;;;;;;;5904025;28;20363;-86
2024/02/21 01:18:18;;;;;;;4.50;3.00;;;;;;;;;;5887295;28;20525;-86
2024/02/21 01:21:09;;;;;;;3.45;2.45;;;;;;;;;;5887301;28;20377;-85
2024/02/21 01:24:01;;;;;;;1.77;1.67;;;;;;;;;;5887771;28;20044;-81
2024/02/21 01:26:51;;;;;;;2.97;2.28;;;;;;;;;;5904047;28;20049;-85
2024/02/21 01:29:42;;;;;;;3.03;2.08;;;;;;;;;;5887113;28;20045;-85
2024/02/21 01:32:33;;;;;;;6.45;3.83;;;;;;;;;;5888163;28;20050;-85
2024/02/21 01:35:24;;;;;;;2.97;2.08;;;;;;;;;;5886996;28;20045;-86
2024/02/21 01:38:15;;;;;;;4.57;2.78;;;;;;;;;;5886814;28;20409;-85
2024/02/21 01:41:06;;;;;;;3.30;2.83;;;;;;;;;;5886866;28;20080;-84
2024/02/21 01:43:58;;;;;;;3.45;2.33;;;;;;;;;;5887116;28;20045;-85
2024/02/21 01:46:49;;;;;;;4.32;2.83;;;;;;;;;;5887993;28;20091;-85
2024/02/21 01:49:44;;;;;;;3.15;2.47;;;;;;;;;;5886569;28;20490;-86
2024/02/21 01:52:35;;;;;;;3.95;2.92;;;;;;;;;;5886816;28;20592;-86
2024/02/21 01:55:26;;;;;;;5.97;4.13;;;;;;;;;;5887888;28;20044;-85
2024/02/21 01:58:19;;;;;;;3.15;2.33;;;;;;;;;;5887651;28;20090;-85
2024/02/21 02:01:10;;;;;;;7.72;3.22;;;;;;;;;;5886802;28;20057;-85
2024/02/21 02:04:05;;;;;;;3.65;2.47;;;;;;;;;;5886434;28;20045;-86
2024/02/21 02:06:55;;;;;;;10.75;4.88;;;;;;;;;;5870792;28;20123;-86
2024/02/21 02:09:46;;;;;;;7.88;2.85;;;;;;;;;;5887594;28;20041;-85
2024/02/21 02:12:37;;;;;;;4.78;3.58;;;;;;;;;;5886312;28;20053;-85
2024/02/21 02:15:39;;;;;;;4.93;3.00;;;;;;;;;;5887148;28;20058;-85
2024/02/21 02:18:30;;;;;;;2.42;2.22;;;;;;;;;;5885559;28;20048;-85
2024/02/21 02:21:38;;;;;;;9.48;3.55;;;;;;;;;;5887312;28;20057;-85
2024/02/21 02:24:29;;;;;;;8.50;3.97;;;;;;;;;;5886933;28;20418;-85
2024/02/21 02:27:20;;;;;;;4.35;2.72;;;;;;;;;;5885902;28;20494;-85
2024/02/21 02:30:11;;;;;;;6.38;3.35;;;;;;;;;;5885685;28;20049;-85
2024/02/21 02:33:05;;;;;;;2.95;2.65;;;;;;;;;;5869187;28;20422;-85
2024/02/21 02:35:58;;;;;;;9.65;4.18;;;;;;;;;;5886016;28;20518;-85
2024/02/21 02:38:49;;;;;;;9.20;4.57;;;;;;;;;;5887112;28;20037;-85
2024/02/21 02:41:40;;;;;;;2.97;1.90;;;;;;;;;;5887137;28;20040;-85
2024/02/21 02:44:31;;;;;;;5.38;3.42;;;;;;;;;;5885508;28;20052;-84
2024/02/21 02:47:21;;;;;;;2.40;1.80;;;;;;;;;;5885640;28;20049;-85
2024/02/21 02:50:13;;;;;;;3.63;3.33;;;;;;;;;;5885418;28;20498;-85
2024/02/21 02:53:04;;;;;;;4.68;3.58;;;;;;;;;;5885171;28;20045;-85
2024/02/21 02:55:55;;;;;;;4.85;2.75;;;;;;;;;;5887357;28;20045;-85
2024/02/21 02:58:46;;;;;;;2.80;2.25;;;;;;;;;;5884959;28;20051;-85
2024/02/21 03:01:38;;;;;;;9.20;2.33;;;;;;;;;;5886569;28;20056;-85
2024/02/21 03:04:29;;;;;;;8.88;2.80;;;;;;;;;;5885072;28;20037;-85
2024/02/21 03:07:20;;;;;;;4.35;3.35;;;;;;;;;;5884820;28;20048;-85
2024/02/21 03:10:12;;;;;;;6.05;3.08;;;;;;;;;;5885126;28;20048;-85
2024/02/21 03:13:03;;;;;;;3.03;2.45;;;;;;;;;;5884863;28;20430;-84
2024/02/21 03:15:54;;;;;;;6.93;2.85;;;;;;;;;;5886578;28;20045;-85
2024/02/21 03:18:45;;;;;;;5.82;2.67;;;;;;;;;;5885774;28;20044;-85
2024/02/21 03:21:36;;;;;;;6.13;3.35;;;;;;;;;;5884735;28;20063;-85
2024/02/21 03:24:26;;;;;;;4.30;2.53;;;;;;;;;;5885950;28;20402;-85
2024/02/21 03:27:17;;;;;;;5.35;3.25;;;;;;;;;;5884357;28;20041;-85
2024/02/21 03:30:09;;;;;;;6.55;2.60;;;;;;;;;;5867722;28;20047;-85
2024/02/21 03:33:01;;;;;;;9.65;2.67;;;;;;;;;;5901186;28;20044;-85
2024/02/21 03:35:52;;;;;;;3.25;2.25;;;;;;;;;;5884689;28;20124;-85
2024/02/21 03:38:43;;;;;;;4.32;2.63;;;;;;;;;;5884163;28;20413;-85
2024/02/21 03:41:34;;;;;;;2.42;2.22;;;;;;;;;;5884386;28;20045;-85
2024/02/21 03:44:24;;;;;;;7.05;3.70;;;;;;;;;;5884146;28;20074;-85
2024/02/21 03:47:15;;;;;;;6.85;4.88;;;;;;;;;;5884107;28;20399;-85
2024/02/21 03:50:07;;;;;;;9.98;3.78;;;;;;;;;;5884147;28;20067;-85
2024/02/21 03:52:58;;;;;;;8.82;3.88;;;;;;;;;;5886034;28;20049;-85
2024/02/21 03:55:49;;;;;;;6.75;3.67;;;;;;;;;;5867874;28;20171;-86
2024/02/21 03:58:40;;;;;;;10.60;6.63;;;;;;;;;;5884181;28;20037;-85
2024/02/21 04:01:31;;;;;;;12.00;5.82;;;;;;;;;;5884285;28;20048;-85
2024/02/21 04:04:21;;;;;;;4.57;3.85;;;;;;;;;;5884029;28;20450;-85
2024/02/21 04:07:14;;;;;;;6.38;3.40;;;;;;;;;;5883856;28;20060;-85
2024/02/21 04:10:05;;;;;;;4.95;2.92;;;;;;;;;;5883393;28;20063;-84
2024/02/21 04:12:56;;;;;;;7.65;3.47;;;;;;;;;;5885665;28;20041;-85
2024/02/21 04:15:47;;;;;;;3.65;3.25;;;;;;;;;;5882102;28;20156;-85
2024/02/21 04:18:40;;;;;;;6.35;3.42;;;;;;;;;;5884183;28;20116;-85
2024/02/21 04:21:31;;;;;;;4.85;2.88;;;;;;;;;;5883939;28;20076;-85
2024/02/21 04:24:21;;;;;;;8.68;3.03;;;;;;;;;;5883953;28;20051;-85
2024/02/21 04:27:12;;;;;;;2.22;2.05;;;;;;;;;;5883739;28;20053;-85
2024/02/21 04:30:04;;;;;;;2.83;2.53;;;;;;;;;;5883684;28;20053;-84
2024/02/21 04:32:55;;;;;;;4.68;3.88;;;;;;;;;;5867515;28;20044;-85
2024/02/21 04:35:46;;;;;;;4.88;2.80;;;;;;;;;;5883515;28;20045;-84
2024/02/21 04:38:36;;;;;;;2.40;2.20;;;;;;;;;;5885093;28;20502;-85
2024/02/21 04:41:27;;;;;;;3.63;2.78;;;;;;;;;;5886187;28;20045;-85
2024/02/21 04:44:21;;;;;;;3.05;2.78;;;;;;;;;;5888228;28;20049;-84
2024/02/21 04:47:12;;;;;;;3.67;2.75;;;;;;;;;;5904412;28;20391;-84
2024/02/21 04:50:03;;;;;;;3.25;2.38;;;;;;;;;;5888067;28;20075;-85
2024/02/21 04:52:54;;;;;;;3.10;2.10;;;;;;;;;;5888272;28;20040;-84
2024/02/21 04:55:46;;;;;;;5.57;3.03;;;;;;;;;;5887821;28;20498;-84
2024/02/21 04:58:40;;;;;;;4.63;2.75;;;;;;;;;;5887659;28;20045;-85
2024/02/21 05:01:32;;;;;;;3.10;2.55;;;;;;;;;;5888927;28;20048;-84
2024/02/21 05:04:22;;;;;;;8.77;3.55;;;;;;;;;;5887671;28;20048;-85
2024/02/21 05:07:13;;;;;;;9.68;3.53;;;;;;;;;;5887630;28;20131;-85
2024/02/21 05:10:07;;;;;;;6.72;3.28;;;;;;;;;;5887760;28;20107;-85
2024/02/21 05:12:58;;;;;;;9.15;2.47;;;;;;;;;;5904599;28;20048;-85
2024/02/21 05:15:49;;;;;;;11.15;3.92;;;;;;;;;;5887150;28;20044;-85
2024/02/21 05:18:43;;;;;;;6.47;3.55;;;;;;;;;;5887519;28;20501;-85
2024/02/21 05:21:34;;;;;;;4.88;4.10;;;;;;;;;;5887293;28;20044;-85
2024/02/21 05:24:25;;;;;;;6.32;2.65;;;;;;;;;;5887419;28;20476;-85
2024/02/21 05:27:16;;;;;;;3.38;2.47;;;;;;;;;;5887036;28;20052;-85
2024/02/21 05:30:07;;;;;;;5.43;3.00;;;;;;;;;;5887233;28;20554;-85
2024/02/21 05:32:58;;;;;;;4.28;2.92;;;;;;;;;;5887473;28;20051;-85
2024/02/21 05:35:50;;;;;;;4.05;3.65;;;;;;;;;;5870390;28;20052;-85
2024/02/21 05:38:40;;;;;;;4.80;3.17;;;;;;;;;;5870424;28;20061;-85
2024/02/21 05:41:31;;;;;;;3.30;3.00;;;;;;;;;;5886844;28;20391;-85
2024/02/21 05:44:22;;;;;;;3.88;3.00;;;;;;;;;;5886879;28;20045;-85
2024/02/21 05:47:15;;;;;;;5.25;3.10;;;;;;;;;;5888163;28;20494;-85
2024/02/21 05:50:06;;;;;;;4.82;4.20;;;;;;;;;;5903336;28;20048;-84
2024/02/21 05:52:57;;;;;;;4.55;3.08;;;;;;;;;;5887749;28;20045;-85
2024/02/21 05:55:48;;;;;;;2.75;2.55;;;;;;;;;;5886589;28;20036;-85
2024/02/21 05:58:40;;;;;;;5.22;3.45;;;;;;;;;;5888007;28;20124;-85
2024/02/21 06:01:31;;;;;;;11.18;3.75;;;;;;;;;;5886577;28;20037;-85
2024/02/21 06:04:21;;;;;;;7.35;3.45;;;;;;;;;;5886528;28;20049;-85
2024/02/21 06:07:13;;;;;;;7.28;2.97;;;;;;;;;;5887554;28;20478;-85
2024/02/21 06:10:05;;;;;;;5.35;3.05;;;;;;;;;;5886249;28;20138;-84
2024/02/21 06:12:56;;;;;;;3.83;2.75;;;;;;;;;;5886642;28;20069;-85
2024/02/21 06:15:47;;;;;;;9.27;3.75;;;;;;;;;;5886218;28;20045;-84
2024/02/21 06:18:38;;;;;;;3.92;3.33;;;;;;;;;;5886036;28;20045;-85
2024/02/21 06:21:29;;;;;;;8.90;3.78;;;;;;;;;;5887314;28;20443;-85
2024/02/21 06:24:20;;;;;;;7.18;4.72;;;;;;;;;;5885907;28;20049;-85
2024/02/21 06:27:11;;;;;;;7.45;4.07;;;;;;;;;;5885611;28;20052;-85
2024/02/21 06:30:02;;;;;;;9.07;3.67;;;;;;;;;;5885816;28;20573;-85
2024/02/21 06:32:55;;;;;;;3.00;2.72;;;;;;;;;;5885892;28;20128;-85
2024/02/21 06:35:47;;;;;;;2.45;2.25;;;;;;;;;;5887062;28;20044;-84
2024/02/21 06:38:38;;;;;;;3.70;2.80;;;;;;;;;;5886173;28;20045;-84
2024/02/21 06:41:30;;;;;;;5.55;2.83;;;;;;;;;;5885407;28;20102;-85
2024/02/21 06:44:22;;;;;;;5.00;3.05;;;;;;;;;;5885486;28;20057;-85
2024/02/21 06:47:12;;;;;;;6.68;3.47;;;;;;;;;;5885432;28;20608;-85
2024/02/21 06:50:04;;;;;;;5.38;3.33;;;;;;;;;;5886684;28;20210;-84
2024/02/21 06:52:55;;;;;;;4.35;3.35;;;;;;;;;;5885615;28;20052;-85
2024/02/21 06:55:46;;;;;;;4.65;2.90;;;;;;;;;;5884963;28;20040;-84
2024/02/21 06:58:37;;;;;;;5.13;3.00;;;;;;;;;;5868805;28;20059;-85
2024/02/21 07:01:28;;;;;;;3.55;2.85;;;;;;;;;;5868433;28;20071;-85
2024/02/21 07:04:19;;;;;;;4.55;3.33;;;;;;;;;;5884173;28;20138;-84
2024/02/21 07:07:10;;;;;;;5.15;3.45;;;;;;;;;;5901730;28;20045;-84
2024/02/21 07:10:00;;;;;;;6.53;4.05;;;;;;;;;;5886498;28;20124;-80
2024/02/21 07:12:52;;;;;;;6.65;3.30;;;;;;;;;;5885629;28;20076;-85
2024/02/21 07:15:43;;;;;;;4.07;2.70;;;;;;;;;;5884631;28;20410;-84
2024/02/21 07:18:34;;;;;;;2.90;2.17;;;;;;;;;;5884997;28;20413;-84
2024/02/21 07:21:25;;;;;;;5.90;2.75;;;;;;;;;;5886386;28;20059;-85
2024/02/21 07:24:16;;;;;;;8.85;3.40;;;;;;;;;;5884846;28;20417;-85
2024/02/21 07:27:07;;;;;;;8.25;3.95;;;;;;;;;;5884734;28;20502;-83
2024/02/21 07:29:58;;;;;;;5.35;3.33;;;;;;;;;;5868817;28;20041;-85
2024/02/21 07:32:51;;;;;;;33.05;3.10;;;;;;;;;;5901109;28;20066;-84
2024/02/21 07:35:44;;;;;;;3.83;2.47;;;;;;;;;;5884755;28;20044;-84
2024/02/21 07:38:35;;;;;;;3.92;2.58;;;;;;;;;;5884943;28;20057;-85
2024/02/21 07:41:28;;;;;;;7.25;4.07;;;;;;;;;;5901036;28;20056;-84
2024/02/21 07:44:19;;;;;;;5.63;4.43;;;;;;;;;;5885198;28;20053;-85
2024/02/21 07:47:10;;;;;;;5.70;5.10;;;;;;;;;;5901220;28;20055;-84
2024/02/21 07:50:02;;;;;;;7.70;6.00;;;;;;;;;;5884696;28;20040;-80
2024/02/21 07:52:53;;;;;;;3.22;2.92;;;;;;;;;;5884999;28;20099;-84
2024/02/21 07:55:44;;;;;;;7.72;4.03;;;;;;;;;;5884467;28;20178;-83
2024/02/21 07:58:35;;;;;;;5.30;3.05;;;;;;;;;;5884320;28;20083;-84
2024/02/21 08:01:26;;;;;;;3.20;2.78;;;;;;;;;;5884623;28;20045;-84
2024/02/21 08:04:17;;;;;;;3.20;2.65;;;;;;;;;;5868314;28;20095;-84
2024/02/21 08:07:08;;;;;;;8.77;3.58;;;;;;;;;;5884721;28;20068;-84
2024/02/21 08:09:59;;;;;;;5.82;3.30;;;;;;;;;;5886169;28;20045;-84
2024/02/21 08:12:50;;;;;;;3.72;2.67;;;;;;;;;;5884603;28;20508;-84
2024/02/21 08:15:41;;;;;;;7.72;3.65;;;;;;;;;;5886276;28;20411;-84
2024/02/21 08:18:36;;;;;;;2.28;2.08;;;;;;;;;;5889096;28;20470;-84
2024/02/21 08:21:27;;;;;;;3.75;3.40;;;;;;;;;;5890345;28;20410;-84
2024/02/21 08:24:17;;;;;;;3.33;2.70;;;;;;;;;;5888722;28;20414;-83
2024/02/21 08:27:08;;;;;;;7.43;3.47;;;;;;;;;;5871995;28;20056;-83
2024/02/21 08:29:59;;;;;;;3.67;2.85;;;;;;;;;;5905649;28;20045;-83
2024/02/21 08:32:50;;;;;;;6.40;3.00;;;;;;;;;;5888265;28;20047;-83
2024/02/21 08:35:41;;;;;;;14.07;6.60;;;;;;;;;;5889846;28;20118;-84
2024/02/21 08:38:33;;;;;;;15.10;4.43;;;;;;;;;;5888349;28;20392;-84
2024/02/21 08:41:24;;;;;;;3.05;2.05;;;;;;;;;;5871599;28;20414;-84
2024/02/21 08:44:35;;;;;;;2.72;2.53;;;;;;;;;;5888436;28;20078;-83
2024/02/21 08:47:27;;;;;;;2.67;2.28;;;;;;;;;;5889432;28;20382;-83
2024/02/21 08:50:18;;;;;;;2.97;1.92;;;;;;;;;;5888205;28;20049;-82
2024/02/21 08:53:18;;;;;;;4.13;1.92;;;;;;;;;;5873103;28;20148;-82
2024/02/21 08:56:09;;;;;;;2.50;2.28;;;;;;;;;;5887633;28;20049;-82
2024/02/21 08:59:00;;;;;;;1.63;1.48;;;;;;;;;;5888499;28;20052;-84
2024/02/21 09:01:53;;;;;;;7.57;2.30;;;;;;;;;;5887777;28;20062;-82
2024/02/21 09:04:44;;;;;;;4.50;2.72;;;;;;;;;;5888749;28;20409;-82
2024/02/21 09:07:35;;;;;;;3.38;2.38;;;;;;;;;;5887688;28;20051;-82
2024/02/21 09:10:26;;;;;;;1.98;1.60;;;;;;;;;;5889141;28;20040;-83
2024/02/21 09:13:17;;;;;;;4.55;2.80;;;;;;;;;;5887444;28;20049;-82
2024/02/21 09:16:09;;;;;;;3.55;2.13;;;;;;;;;;5887712;28;20049;-82
2024/02/21 09:19:00;;;;;;;6.68;2.92;;;;;;;;;;5889636;28;20041;-81
2024/02/21 09:21:51;;;;;;;1.92;1.30;;;;;;;;;;5887822;28;20060;-82
2024/02/21 09:24:42;;;;;;;17.10;3.10;;;;;;;;;;5887441;28;20041;-82
2024/02/21 09:27:33;;;;;;;4.90;2.58;;;;;;;;;;5886178;28;20052;-82
2024/02/21 09:30:24;;;;;;;5.43;2.05;;;;;;;;;;5887334;28;20056;-81
2024/02/21 09:33:15;;;;;;;3.38;2.15;;;;;;;;;;5887321;28;20052;-82
2024/02/21 09:36:21;;;;;;;2.50;2.30;;;;;;;;;;5888694;28;20053;-82
2024/02/21 09:39:14;;;;;;;5.63;2.30;;;;;;;;;;5886864;28;20071;-82
2024/02/21 09:42:11;;;;;;;3.13;2.22;;;;;;;;;;5903886;28;20061;-82
2024/02/21 09:45:19;;;;;;;6.30;2.75;;;;;;;;;;5887340;28;20056;-81
2024/02/21 09:48:34;;;;;;;7.93;3.67;;;;;;;;;;5886975;28;20052;-82
2024/02/21 09:51:30;;;;;;;9.68;2.78;;;;;;;;;;5886888;28;20044;-82
2024/02/21 09:54:22;;;;;;;3.88;1.88;;;;;;;;;;5886918;28;20074;-82
2024/02/21 09:57:13;;;;;;;19.98;5.85;;;;;;;;;;5886761;28;20399;-83
2024/02/21 10:00:08;;;;;;;17.23;3.67;;;;;;;;;;5886749;28;20099;-83
2024/02/21 10:02:59;;;;;;;2.47;1.80;;;;;;;;;;5887063;28;20490;-83
2024/02/21 10:05:50;;;;;;;6.28;2.03;;;;;;;;;;5886804;28;20044;-82
2024/02/21 10:08:41;;;;;;;7.15;3.28;;;;;;;;;;5886600;28;20049;-82
2024/02/21 10:11:34;;;;;;;3.72;2.60;;;;;;;;;;5886563;28;20049;-82
2024/02/21 10:14:25;;;;;;;3.85;2.35;;;;;;;;;;5886224;28;20060;-82
2024/02/21 10:17:19;;;;;;;5.30;2.08;;;;;;;;;;5887465;28;20052;-82
2024/02/21 10:20:11;;;;;;;8.00;4.05;;;;;;;;;;5886221;28;20458;-82
2024/02/21 10:23:09;;;;;;;3.35;2.67;;;;;;;;;;5886028;28;20051;-81
2024/02/21 10:26:09;;;;;;;7.17;3.53;;;;;;;;;;5887948;28;20048;-82
2024/02/21 10:29:02;;;;;;;16.98;3.50;;;;;;;;;;5902504;28;20275;-82
2024/02/21 10:32:13;;;;;;;3.47;2.33;;;;;;;;;;5886123;28;20045;-82
2024/02/21 10:35:05;;;;;;;4.32;1.77;;;;;;;;;;5885603;28;20056;-83
2024/02/21 10:37:57;;;;;;;5.65;2.30;;;;;;;;;;5887290;28;20052;-82
2024/02/21 10:40:49;;;;;;;5.78;3.63;;;;;;;;;;5885627;28;20041;-82
2024/02/21 10:43:41;;;;;;;15.82;3.08;;;;;;;;;;5887018;28;20123;-82
2024/02/21 10:46:36;;;;;;;5.43;1.38;;;;;;;;;;5885520;28;20053;-82
2024/02/21 10:49:30;;;;;;;4.30;1.88;;;;;;;;;;5869274;28;20051;-82
2024/02/21 10:52:49;;;;;;;5.47;2.45;;;;;;;;;;5885880;28;20041;-83
2024/02/21 10:55:54;;;;;;;7.90;3.03;;;;;;;;;;5888149;28;20516;-82
2024/02/21 10:58:46;;;;;;;2.53;2.00;;;;;;;;;;5886303;28;20632;-82
2024/02/21 11:01:37;;;;;;;4.68;2.17;;;;;;;;;;5901747;28;20041;-83
2024/02/21 11:04:28;;;;;;;7.90;2.75;;;;;;;;;;5868618;28;20049;-83
2024/02/21 11:07:20;;;;;;;1.88;1.73;;;;;;;;;;5886421;28;20076;-84
2024/02/21 11:10:26;;;;;;;5.05;2.97;;;;;;;;;;5885152;28;20055;-82
2024/02/21 11:13:17;;;;;;;3.22;2.13;;;;;;;;;;5884822;28;20049;-82
2024/02/21 11:16:10;;;;;;;3.33;2.40;;;;;;;;;;5868431;28;20115;-83
2024/02/21 11:19:12;;;;;;;7.50;3.22;;;;;;;;;;5885009;28;20052;-82
2024/02/21 11:22:16;;;;;;;7.47;3.35;;;;;;;;;;5886395;28;20060;-84
2024/02/21 11:25:13;;;;;;;2.75;1.13;;;;;;;;;;5885595;28;20079;-83
2024/02/21 11:28:06;;;;;;;2.67;2.00;;;;;;;;;;5886740;28;20056;-84
2024/02/21 11:31:37;;;;;;;5.78;1.27;;;;;;;;;;5885224;28;20045;-82
2024/02/21 11:34:29;;;;;;;5.20;2.05;;;;;;;;;;5878959;28;20064;-83
2024/02/21 11:37:20;;;;;;;5.25;2.53;;;;;;;;;;5884667;28;20468;-83
2024/02/21 11:40:13;;;;;;;12.95;4.25;;;;;;;;;;5885786;28;20064;-83
2024/02/21 11:43:04;;;;;;;4.43;3.55;;;;;;;;;;5884960;28;20045;-84
2024/02/21 11:46:05;;;;;;;6.43;3.28;;;;;;;;;;5901697;28;20044;-83
2024/02/21 11:49:00;;;;;;;6.53;3.42;;;;;;;;;;5884954;28;20118;-83
2024/02/21 11:52:03;;;;;;;6.15;2.55;;;;;;;;;;5884117;28;20068;-83
2024/02/21 11:54:57;;;;;;;14.20;4.57;;;;;;;;;;5868795;28;20040;-83
2024/02/21 11:57:49;;;;;;;11.75;5.07;;;;;;;;;;5886112;28;20064;-85
2024/02/21 12:00:40;;;;;;;7.55;3.28;;;;;;;;;;5867688;28;20049;-83
2024/02/21 12:03:31;;;;;;;26.42;3.38;;;;;;;;;;5884390;28;20044;-84
2024/02/21 12:06:22;;;;;;;10.40;3.28;;;;;;;;;;5884355;28;20061;-86
2024/02/21 12:09:16;;;;;;;6.00;3.78;;;;;;;;;;5901086;28;20063;-84
2024/02/21 12:12:07;;;;;;;13.10;3.72;;;;;;;;;;5884396;28;20576;-84
2024/02/21 12:14:58;;;;;;;12.60;6.15;;;;;;;;;;5884923;28;20045;-83
2024/02/21 12:17:51;;;;;;;8.35;3.83;;;;;;;;;;5884272;28;20045;-84
2024/02/21 12:20:44;;;;;;;3.20;2.15;;;;;;;;;;5883923;28;20106;-84
2024/02/21 12:23:34;;;;;;;6.93;3.70;;;;;;;;;;5884359;28;20498;-83
2024/02/21 12:26:26;;;;;;;9.65;3.45;;;;;;;;;;5883907;28;20044;-83
2024/02/21 12:29:21;;;;;;;5.35;2.60;;;;;;;;;;5867543;28;20498;-84
2024/02/21 12:32:12;;;;;;;7.70;2.67;;;;;;;;;;5867570;28;20049;-82
2024/02/21 12:35:03;;;;;;;7.28;2.13;;;;;;;;;;5885151;28;20057;-82
2024/02/21 12:37:54;;;;;;;5.75;2.33;;;;;;;;;;5900707;28;20364;-84
2024/02/21 12:41:04;;;;;;;2.17;2.00;;;;;;;;;;5885030;28;20429;-83
2024/02/21 12:43:56;;;;;;;5.53;3.08;;;;;;;;;;5900724;28;20067;-84
2024/02/21 12:46:51;;;;;;;6.60;3.40;;;;;;;;;;5885065;28;20049;-83
2024/02/21 12:49:42;;;;;;;11.23;4.38;;;;;;;;;;5884470;28;20041;-83
2024/02/21 12:52:36;;;;;;;19.80;6.05;;;;;;;;;;5883714;28;20568;-83
2024/02/21 12:55:27;;;;;;;8.02;4.60;;;;;;;;;;5885129;28;20121;-83
2024/02/21 12:58:17;;;;;;;7.15;3.38;;;;;;;;;;5883424;28;20045;-83
2024/02/21 13:01:09;;;;;;;6.32;4.50;;;;;;;;;;5884565;28;20056;-82
2024/02/21 13:04:00;;;;;;;7.97;5.20;;;;;;;;;;5888264;28;20040;-83
2024/02/21 13:06:51;;;;;;;12.55;6.82;;;;;;;;;;5871914;28;20129;-83
2024/02/21 13:09:42;;;;;;;8.68;5.78;;;;;;;;;;5904350;28;20522;-83
2024/02/21 13:12:33;;;;;;;7.78;4.85;;;;;;;;;;5888984;28;20041;-83
2024/02/21 13:15:24;;;;;;;9.75;3.78;;;;;;;;;;5904242;28;20411;-83
2024/02/21 13:18:15;;;;;;;4.50;3.35;;;;;;;;;;5887341;28;20414;-82
2024/02/21 13:21:06;;;;;;;2.85;1.98;;;;;;;;;;5887406;28;20519;-83
2024/02/21 13:23:57;;;;;;;5.80;3.13;;;;;;;;;;5888114;28;20055;-83
2024/02/21 13:26:48;;;;;;;5.57;3.08;;;;;;;;;;5903851;28;20116;-83
2024/02/21 13:29:38;;;;;;;9.07;5.35;;;;;;;;;;5888708;28;20045;-83
2024/02/21 13:32:30;;;;;;;22.17;3.90;;;;;;;;;;5870492;28;20048;-83
2024/02/21 13:35:21;;;;;;;4.60;3.72;;;;;;;;;;5887420;28;20481;-82
2024/02/21 13:38:13;;;;;;;4.68;2.80;;;;;;;;;;5870667;28;20128;-82
2024/02/21 13:41:06;;;;;;;16.45;6.15;;;;;;;;;;5888181;28;20044;-82
2024/02/21 13:43:57;;;;;;;9.57;5.55;;;;;;;;;;5887670;28;20060;-83
2024/02/21 13:46:48;;;;;;;12.32;8.13;;;;;;;;;;5888744;28;20118;-82
2024/02/21 13:49:39;;;;;;;10.40;6.18;;;;;;;;;;5887705;28;20063;-83
2024/02/21 13:52:31;;;;;;;14.77;5.78;;;;;;;;;;5888908;28;20355;-82
2024/02/21 13:55:22;;;;;;;12.95;4.53;;;;;;;;;;5903671;28;20045;-83
2024/02/21 13:58:13;;;;;;;7.80;6.15;;;;;;;;;;5888101;28;20053;-82
2024/02/21 14:01:04;;;;;;;5.60;2.90;;;;;;;;;;5903087;28;20124;-82
2024/02/21 14:03:55;;;;;;;4.03;3.25;;;;;;;;;;5870834;28;20049;-82
2024/02/21 14:06:46;;;;;;;8.27;3.90;;;;;;;;;;5886371;28;20384;-83
2024/02/21 14:09:37;;;;;;;4.05;2.83;;;;;;;;;;5886579;28;20068;-83
2024/02/21 14:12:28;;;;;;;16.27;3.50;;;;;;;;;;5887465;28;20052;-84
2024/02/21 14:15:18;;;;;;;6.25;3.05;;;;;;;;;;5886124;28;20041;-83
2024/02/21 14:18:09;;;;;;;6.53;3.67;;;;;;;;;;5887547;28;20632;-83
2024/02/21 14:21:00;;;;;;;7.18;2.60;;;;;;;;;;5869719;28;20037;-81
2024/02/21 14:23:52;;;;;;;9.13;4.20;;;;;;;;;;5886938;28;20045;-82
2024/02/21 14:26:43;;;;;;;10.63;5.43;;;;;;;;;;5887662;28;20045;-83
2024/02/21 14:29:34;;;;;;;9.55;5.57;;;;;;;;;;5887719;28;20051;-83
2024/02/21 14:32:25;;;;;;;2.05;1.85;;;;;;;;;;5885975;28;20041;-82
2024/02/21 14:35:16;;;;;;;9.30;4.53;;;;;;;;;;5887479;28;20048;-83
2024/02/21 14:38:07;;;;;;;3.97;2.60;;;;;;;;;;5886153;28;20047;-82
2024/02/21 14:40:58;;;;;;;16.85;4.05;;;;;;;;;;5887732;28;20135;-83
2024/02/21 14:43:49;;;;;;;11.45;6.05;;;;;;;;;;5887286;28;20040;-83
2024/02/21 14:46:40;;;;;;;9.18;5.50;;;;;;;;;;5887378;28;20045;-83
2024/02/21 14:49:31;;;;;;;10.40;7.32;;;;;;;;;;5902590;28;20124;-83
2024/02/21 14:52:24;;;;;;;4.78;3.42;;;;;;;;;;5885868;28;20443;-83
2024/02/21 14:55:15;;;;;;;8.57;3.47;;;;;;;;;;5887141;28;20502;-83
2024/02/21 14:58:07;;;;;;;9.77;5.07;;;;;;;;;;5885675;28;20049;-83
2024/02/21 15:00:58;;;;;;;8.13;5.32;;;;;;;;;;5869258;28;20075;-83
2024/02/21 15:03:49;;;;;;;15.82;5.03;;;;;;;;;;5901645;28;20041;-84
2024/02/21 15:06:40;;;;;;;7.60;4.25;;;;;;;;;;5884910;28;20045;-82
2024/02/21 15:09:31;;;;;;;8.30;4.55;;;;;;;;;;5884993;28;20604;-83
2024/02/21 15:12:23;;;;;;;13.82;7.95;;;;;;;;;;5884887;28;20590;-83
2024/02/21 15:15:14;;;;;;;7.65;4.63;;;;;;;;;;5868539;28;20098;-82
2024/02/21 15:18:05;;;;;;;9.63;7.50;;;;;;;;;;5868303;28;20059;-82
2024/02/21 15:20:55;;;;;;;6.15;3.75;;;;;;;;;;5885384;28;20071;-84
2024/02/21 15:23:46;;;;;;;6.10;3.70;;;;;;;;;;5885063;28;20041;-83
2024/02/21 15:26:37;;;;;;;8.48;5.45;;;;;;;;;;5885347;28;20048;-83
2024/02/21 15:29:28;;;;;;;18.00;5.28;;;;;;;;;;5884704;28;20521;-82
2024/02/21 15:32:19;;;;;;;5.60;3.88;;;;;;;;;;5900751;28;20049;-83
2024/02/21 15:35:10;;;;;;;5.20;3.75;;;;;;;;;;5884517;28;20509;-82
2024/02/21 15:38:01;;;;;;;7.55;3.90;;;;;;;;;;5884849;28;20505;-81
2024/02/21 15:40:52;;;;;;;10.77;4.03;;;;;;;;;;5885156;28;20243;-83
2024/02/21 15:43:43;;;;;;;10.88;3.13;;;;;;;;;;5885881;28;20494;-82
2024/02/21 15:46:36;;;;;;;8.30;4.38;;;;;;;;;;5885715;28;20040;-82
2024/02/21 15:49:27;;;;;;;6.07;4.32;;;;;;;;;;5868297;28;20056;-82
2024/02/21 15:52:19;;;;;;;13.93;5.97;;;;;;;;;;5900783;28;20130;-83
2024/02/21 15:55:12;;;;;;;8.95;3.10;;;;;;;;;;5884290;28;20543;-82
2024/02/21 15:58:04;;;;;;;5.05;2.58;;;;;;;;;;5885418;28;20067;-83
2024/02/21 16:00:55;;;;;;;5.55;3.75;;;;;;;;;;5885933;28;20048;-83
2024/02/21 16:03:45;;;;;;;7.55;5.72;;;;;;;;;;5884101;28;20481;-83
2024/02/21 16:06:36;;;;;;;10.40;3.00;;;;;;;;;;5867793;28;20513;-83
2024/02/21 16:09:31;;;;;;;19.38;6.43;;;;;;;;;;5885387;28;20045;-82
2024/02/21 16:12:23;;;;;;;40.00;19.25;;;;;;;;;;5900702;28;20391;-82
2024/02/21 16:15:14;;;;;;;24.33;14.35;;;;;;;;;;5884465;28;20049;-82
2024/02/21 16:18:05;;;;;;;8.65;5.28;;;;;;;;;;5867748;28;20131;-82
2024/02/21 16:20:56;;;;;;;11.23;7.50;;;;;;;;;;5884523;28;20036;-82
2024/02/21 16:23:47;;;;;;;5.53;4.95;;;;;;;;;;5885444;28;20068;-83
2024/02/21 16:26:38;;;;;;;12.15;10.77;;;;;;;;;;5885201;28;20049;-82
2024/02/21 16:29:28;;;;;;;9.50;6.30;;;;;;;;;;5900482;28;20048;-82
2024/02/21 16:32:19;;;;;;;11.05;5.68;;;;;;;;;;5885039;28;20425;-82
2024/02/21 16:35:10;;;;;;;6.72;3.80;;;;;;;;;;5884016;28;20059;-83
2024/02/21 16:38:03;;;;;;;6.07;3.95;;;;;;;;;;5871208;28;20579;-81
2024/02/21 16:40:55;;;;;;;7.60;5.97;;;;;;;;;;5872429;28;20111;-82
2024/02/21 16:43:47;;;;;;;11.25;5.45;;;;;;;;;;5889472;28;20045;-83
2024/02/21 16:46:38;;;;;;;7.32;2.60;;;;;;;;;;5888141;28;20052;-83
2024/02/21 16:49:30;;;;;;;5.88;4.72;;;;;;;;;;5889391;28;20532;-83
2024/02/21 16:52:23;;;;;;;6.45;4.57;;;;;;;;;;5887994;28;20410;-83
2024/02/21 16:55:14;;;;;;;12.35;6.75;;;;;;;;;;5888057;28;20156;-82
2024/02/21 16:58:08;;;;;;;13.40;8.30;;;;;;;;;;5889060;28;20127;-82
2024/02/21 17:01:01;;;;;;;21.10;13.77;;;;;;;;;;5888513;28;20436;-82
2024/02/21 17:03:52;;;;;;;20.35;10.65;;;;;;;;;;5887879;28;20037;-82
2024/02/21 17:06:43;;;;;;;13.05;8.43;;;;;;;;;;5889030;28;20044;-82
2024/02/21 17:09:36;;;;;;;16.58;8.90;;;;;;;;;;5889171;28;20037;-82